Aureola, Iowa
Current Conditions -  °F | °C
As of 2:15 AM on Saturday 29 Nov 2014 (Local Time) from KCCY Reporting Station
Haze Haze  
Wind Chill: 16°   Ceiling: 300
Heat Index: 27°   Visibility: 3mi
Dew Point: 27°   Wind: 12mph
Humidity: 100%   Direction: 130°SE
Pressure: 29.62"   Gusts: NA
Location:  42.9618°N, 92.9184°W
Report Text: KCCY 290815Z AUTO 13010KT 3SM BR OVC003 M03/M03 A2962 RMK AO2
Loading
Personal Weather Stations






























Interactive Weather Map New forecast layout! Learn more

10-Day Weather Forecast

Advertisements
Track Severe Weather on mobile